Time,TemperatureF,DewpointF,PressureIn,WindDirection,WindDirectionDegrees,WindSpeedMPH,WindSpeedGustMPH,Humidity,HourlyPrecipIn,Conditions,Clouds,dailyrainin,SolarRadiationWatts/m^2,SoftwareType,DateUTC
2013-08-05 00:14:00,76.0,68.0,30.02,ESE,106,4.0,-999.0,77,-99.99,,,0.00,0,weatherlink.com 1.10,2013-08-04 22:14:00,
2013-08-05 00:30:00,75.3,68.0,30.02,ESE,106,3.0,-999.0,77,-99.99,,,0.00,0,weatherlink.com 1.10,2013-08-04 22:30:00,
2013-08-05 00:45:00,75.2,68.0,30.02,ESE,105,0.0,-999.0,77,-99.99,,,0.00,0,weatherlink.com 1.10,2013-08-04 22:45:00,
2013-08-05 01:00:00,75.3,68.0,30.02,ESE,105,2.0,-999.0,77,-99.99,,,0.00,0,weatherlink.com 1.10,2013-08-04 23:00:00,
2013-08-05 01:15:00,75.5,68.0,30.02,ESE,105,0.0,-999.0,77,-99.99,,,0.00,0,weatherlink.com 1.10,2013-08-04 23:15:00,
2013-08-05 01:31:00,75.3,67.0,30.01,ESE,105,0.0,-999.0,76,-99.99,,,0.00,0,weatherlink.com 1.10,2013-08-04 23:31:00,
2013-08-05 01:45:00,75.2,67.0,30.01,ESE,103,0.0,-999.0,76,-99.99,,,0.00,0,weatherlink.com 1.10,2013-08-04 23:45:00,
2013-08-05 02:01:00,75.0,67.0,30.01,ESE,103,4.0,-999.0,75,-99.99,,,0.00,0,weatherlink.com 1.10,2013-08-05 00:01:00,
2013-08-05 02:16:00,74.7,66.0,30.00,ESE,103,0.0,-999.0,73,-99.99,,,0.00,0,weatherlink.com 1.10,2013-08-05 00:16:00,
2013-08-05 02:32:00,74.4,64.0,30.00,ESE,103,0.0,-999.0,71,-99.99,,,0.00,0,weatherlink.com 1.10,2013-08-05 00:32:00,
2013-08-05 02:46:00,73.9,63.0,30.00,ESE,103,0.0,-999.0,69,-99.99,,,0.00,0,weatherlink.com 1.10,2013-08-05 00:46:00,
2013-08-05 03:02:00,73.4,61.0,29.99,ESE,103,0.0,-999.0,66,-99.99,,,0.00,0,weatherlink.com 1.10,2013-08-05 01:02:00,
2013-08-05 03:17:00,73.2,61.0,29.99,ESE,103,0.0,-999.0,65,-99.99,,,0.00,0,weatherlink.com 1.10,2013-08-05 01:17:00,
2013-08-05 03:32:00,73.1,59.0,29.99,ESE,103,0.0,-999.0,62,-99.99,,,0.00,0,weatherlink.com 1.10,2013-08-05 01:32:00,
2013-08-05 03:47:00,73.8,58.0,29.98,ESE,103,0.0,-999.0,58,-99.99,,,0.00,0,weatherlink.com 1.10,2013-08-05 01:47:00,
2013-08-05 04:03:00,74.7,58.0,29.98,ESE,103,0.0,-999.0,56,-99.99,,,0.00,0,weatherlink.com 1.10,2013-08-05 02:03:00,
2013-08-05 04:17:00,74.9,58.0,29.98,ESE,103,0.0,-999.0,56,-99.99,,,0.00,0,weatherlink.com 1.10,2013-08-05 02:17:00,
2013-08-05 04:33:00,74.9,58.0,29.98,ESE,103,0.0,-999.0,56,-99.99,,,0.00,0,weatherlink.com 1.10,2013-08-05 02:33:00,
2013-08-05 04:48:00,74.8,58.0,29.97,ESE,103,0.0,-999.0,56,-99.99,,,0.00,0,weatherlink.com 1.10,2013-08-05 02:48:00,
2013-08-05 05:04:00,74.8,58.0,29.98,ESE,103,0.0,-999.0,56,-99.99,,,0.00,0,weatherlink.com 1.10,2013-08-05 03:04:00,
2013-08-05 05:19:00,74.9,58.0,29.97,ESE,103,0.0,-999.0,55,-99.99,,,0.00,0,weatherlink.com 1.10,2013-08-05 03:19:00,
2013-08-05 05:34:00,74.9,58.0,29.97,ESE,103,0.0,-999.0,55,-99.99,,,0.00,0,weatherlink.com 1.10,2013-08-05 03:34:00,
2013-08-05 05:49:00,74.9,58.0,29.97,ESE,103,0.0,-999.0,55,-99.99,,,0.00,0,weatherlink.com 1.10,2013-08-05 03:49:00,
2013-08-05 06:04:00,74.5,58.0,29.97,East,99,2.0,-999.0,56,-99.99,,,0.00,0,weatherlink.com 1.10,2013-08-05 04:04:00,
2013-08-05 06:20:00,74.1,59.0,29.97,East,93,4.0,-999.0,59,-99.99,,,0.00,0,weatherlink.com 1.10,2013-08-05 04:20:00,
2013-08-05 06:34:00,73.8,60.0,29.97,East,92,1.0,-999.0,62,-99.99,,,0.00,0,weatherlink.com 1.10,2013-08-05 04:34:00,
2013-08-05 06:50:00,73.7,62.0,29.97,East,91,0.0,-999.0,66,-99.99,,,0.00,0,weatherlink.com 1.10,2013-08-05 04:50:00,
2013-08-05 07:05:00,73.9,64.0,29.97,East,86,5.0,-999.0,70,-99.99,,,0.00,9,weatherlink.com 1.10,2013-08-05 05:05:00,
2013-08-05 07:20:00,74.4,66.0,29.97,East,96,4.0,-999.0,74,-99.99,,,0.00,19,weatherlink.com 1.10,2013-08-05 05:20:00,
2013-08-05 07:35:00,74.5,67.0,29.97,East,86,6.0,-999.0,76,-99.99,,,0.00,28,weatherlink.com 1.10,2013-08-05 05:35:00,
2013-08-05 08:06:00,75.2,68.0,29.97,East,79,3.0,-999.0,79,-99.99,,,0.00,44,weatherlink.com 1.10,2013-08-05 06:06:00,
2013-08-05 08:21:00,75.9,69.0,29.97,East,85,11.0,-999.0,79,-99.99,,,0.00,49,weatherlink.com 1.10,2013-08-05 06:21:00,
2013-08-05 08:52:00,77.8,71.0,29.97,ESE,106,6.0,-999.0,80,-99.99,,,0.00,63,weatherlink.com 1.10,2013-08-05 06:52:00,
2013-08-05 09:06:00,78.4,71.0,29.97,ESE,107,5.0,-999.0,79,-99.99,,,0.00,72,weatherlink.com 1.10,2013-08-05 07:06:00,
2013-08-05 09:22:00,79.1,71.0,29.97,East,94,6.0,-999.0,76,-99.99,,,0.00,83,weatherlink.com 1.10,2013-08-05 07:22:00,
2013-08-05 09:37:00,79.8,70.0,29.97,East,92,4.0,-999.0,72,-99.99,,,0.00,93,weatherlink.com 1.10,2013-08-05 07:37:00,
2013-08-05 09:52:00,81.2,70.0,29.97,ENE,64,6.0,-999.0,68,-99.99,,,0.00,107,weatherlink.com 1.10,2013-08-05 07:52:00,
2013-08-05 10:07:00,82.7,69.0,29.98,ESE,105,4.0,-999.0,64,-99.99,,,0.00,448,weatherlink.com 1.10,2013-08-05 08:07:00,
2013-08-05 10:23:00,84.3,69.0,29.99,East,80,1.0,-999.0,61,-99.99,,,0.00,506,weatherlink.com 1.10,2013-08-05 08:23:00,
2013-08-05 10:38:00,85.2,70.0,29.99,East,84,0.0,-999.0,60,-99.99,,,0.00,555,weatherlink.com 1.10,2013-08-05 08:38:00,
2013-08-05 10:53:00,85.3,72.0,29.99,WNW,291,4.0,-999.0,64,-99.99,,,0.00,541,weatherlink.com 1.10,2013-08-05 08:53:00,
2013-08-05 11:09:00,85.0,73.0,29.99,NW,309,5.0,-999.0,67,-99.99,,,0.00,638,weatherlink.com 1.10,2013-08-05 09:09:00,
2013-08-05 11:24:00,85.2,74.0,29.99,WNW,296,3.0,-999.0,69,-99.99,,,0.00,671,weatherlink.com 1.10,2013-08-05 09:24:00,
2013-08-05 11:39:00,86.4,75.0,29.99,NW,313,4.0,-999.0,68,-99.99,,,0.00,703,weatherlink.com 1.10,2013-08-05 09:39:00,
2013-08-05 11:54:00,87.2,74.0,29.99,NW,325,0.0,-999.0,64,-99.99,,,0.00,735,weatherlink.com 1.10,2013-08-05 09:54:00,
2013-08-05 12:09:00,89.1,69.0,29.98,SE,128,3.0,-999.0,52,-99.99,,,0.00,765,weatherlink.com 1.10,2013-08-05 10:09:00,
2013-08-05 12:25:00,90.4,67.0,29.98,SSE,156,0.0,-999.0,46,-99.99,,,0.00,788,weatherlink.com 1.10,2013-08-05 10:25:00,
2013-08-05 12:55:00,91.0,64.0,29.98,East,98,2.0,-999.0,41,-99.99,,,0.00,819,weatherlink.com 1.10,2013-08-05 10:55:00,
2013-08-05 13:11:00,90.9,65.0,29.98,SE,130,3.0,-999.0,42,-99.99,,,0.00,830,weatherlink.com 1.10,2013-08-05 11:11:00,
2013-08-05 13:26:00,91.4,67.0,29.97,SE,130,6.0,-999.0,44,-99.99,,,0.00,842,weatherlink.com 1.10,2013-08-05 11:26:00,
2013-08-05 13:56:00,90.6,67.0,29.97,SSE,163,13.0,-999.0,46,-99.99,,,0.00,847,weatherlink.com 1.10,2013-08-05 11:56:00,
2013-08-05 14:41:00,90.7,63.0,29.96,SSE,148,9.0,-999.0,40,-99.99,,,0.00,830,weatherlink.com 1.10,2013-08-05 12:41:00,
2013-08-05 14:57:00,90.0,62.0,29.96,SSE,160,11.0,-999.0,39,-99.99,,,0.00,819,weatherlink.com 1.10,2013-08-05 12:57:00,
2013-08-05 15:12:00,91.2,62.0,29.95,SE,143,10.0,-999.0,38,-99.99,,,0.00,793,weatherlink.com 1.10,2013-08-05 13:12:00,
2013-08-05 15:28:00,91.3,64.0,29.95,SSE,160,6.0,-999.0,40,-99.99,,,0.00,278,weatherlink.com 1.10,2013-08-05 13:28:00,
2013-08-05 15:42:00,91.2,65.0,29.95,SSE,152,6.0,-999.0,42,-99.99,,,0.00,766,weatherlink.com 1.10,2013-08-05 13:42:00,
2013-08-05 15:57:00,90.4,65.0,29.95,ESE,123,4.0,-999.0,43,-99.99,,,0.00,731,weatherlink.com 1.10,2013-08-05 13:57:00,
2013-08-05 16:12:00,89.8,66.0,29.95,South,187,9.0,-999.0,45,-99.99,,,0.00,701,weatherlink.com 1.10,2013-08-05 14:12:00,
2013-08-05 16:27:00,89.8,62.0,29.95,SE,138,7.0,-999.0,40,-99.99,,,0.00,671,weatherlink.com 1.10,2013-08-05 14:27:00,
2013-08-05 16:58:00,89.1,63.0,29.94,SE,146,0.0,-999.0,42,-99.99,,,0.00,582,weatherlink.com 1.10,2013-08-05 14:58:00,
2013-08-05 17:14:00,88.0,70.0,29.94,South,190,4.0,-999.0,55,-99.99,,,0.00,613,weatherlink.com 1.10,2013-08-05 15:14:00,
2013-08-05 17:29:00,87.4,68.0,29.93,SSE,161,3.0,-999.0,52,-99.99,,,0.00,557,weatherlink.com 1.10,2013-08-05 15:29:00,
2013-08-05 17:44:00,87.4,69.0,29.94,SE,136,5.0,-999.0,54,-99.99,,,0.00,494,weatherlink.com 1.10,2013-08-05 15:44:00,
2013-08-05 18:15:00,85.8,72.0,29.93,SSE,168,6.0,-999.0,63,-99.99,,,0.00,399,weatherlink.com 1.10,2013-08-05 16:15:00,
2013-08-05 18:29:00,85.4,70.0,29.93,SSE,148,7.0,-999.0,61,-99.99,,,0.00,355,weatherlink.com 1.10,2013-08-05 16:29:00,
2013-08-05 18:45:00,85.6,67.0,29.93,SSE,163,6.0,-999.0,54,-99.99,,,0.00,172,weatherlink.com 1.10,2013-08-05 16:45:00,
2013-08-05 19:00:00,85.1,69.0,29.94,SSE,165,7.0,-999.0,58,-99.99,,,0.00,272,weatherlink.com 1.10,2013-08-05 17:00:00,
2013-08-05 19:31:00,83.0,73.0,29.95,South,177,5.0,-999.0,72,-99.99,,,0.00,58,weatherlink.com 1.10,2013-08-05 17:31:00,
2013-08-05 19:45:00,82.9,74.0,29.95,South,189,4.0,-999.0,74,-99.99,,,0.00,53,weatherlink.com 1.10,2013-08-05 17:45:00,
2013-08-05 20:16:00,81.6,74.0,29.95,SSW,195,3.0,-999.0,78,-99.99,,,0.00,44,weatherlink.com 1.10,2013-08-05 18:16:00,
2013-08-05 20:32:00,81.0,74.0,29.95,South,189,2.0,-999.0,79,-99.99,,,0.00,35,weatherlink.com 1.10,2013-08-05 18:32:00,
2013-08-05 20:46:00,80.5,74.0,29.93,SSE,163,2.0,-999.0,80,-99.99,,,0.00,11,weatherlink.com 1.10,2013-08-05 18:46:00,
2013-08-05 21:17:00,79.8,74.0,29.95,SE,136,0.0,-999.0,81,-99.99,,,0.00,0,weatherlink.com 1.10,2013-08-05 19:17:00,
2013-08-05 21:48:00,78.8,73.0,29.94,ESE,107,1.0,-999.0,83,-99.99,,,0.00,0,weatherlink.com 1.10,2013-08-05 19:48:00,
2013-08-05 22:02:00,78.5,73.0,29.93,ESE,104,5.0,-999.0,84,-99.99,,,0.00,0,weatherlink.com 1.10,2013-08-05 20:02:00,
2013-08-05 22:17:00,78.2,73.0,29.93,East,94,0.0,-999.0,85,-99.99,,,0.00,0,weatherlink.com 1.10,2013-08-05 20:17:00,
2013-08-05 22:33:00,77.9,73.0,29.93,East,87,5.0,-999.0,85,-99.99,,,0.00,0,weatherlink.com 1.10,2013-08-05 20:33:00,
2013-08-05 22:48:00,77.7,73.0,29.93,East,88,5.0,-999.0,86,-99.99,,,0.00,0,weatherlink.com 1.10,2013-08-05 20:48:00,
2013-08-05 23:49:00,77.3,73.0,29.93,East,90,3.0,-999.0,86,-99.99,,,0.00,0,weatherlink.com 1.10,2013-08-05 21:49:00,